createdAt,value
2022-11-16T00:04:42.968Z,2.40
2022-11-16T00:09:44.742Z,2.30
2022-11-16T00:14:46.685Z,2.03
2022-11-16T00:19:48.691Z,2.27
2022-11-16T00:24:50.460Z,2.60
2022-11-16T00:29:52.194Z,2.20
2022-11-16T00:34:54.041Z,2.83
2022-11-16T00:39:55.764Z,2.13
2022-11-16T00:44:57.668Z,2.30
2022-11-16T00:49:59.828Z,2.20
2022-11-16T00:55:01.772Z,2.70
2022-11-16T01:00:04.826Z,2.30
2022-11-16T01:05:10.203Z,2.00
2022-11-16T01:10:14.337Z,1.77
2022-11-16T01:15:19.892Z,2.47
2022-11-16T01:20:24.978Z,1.13
2022-11-16T01:25:26.883Z,1.20
2022-11-16T01:30:28.811Z,1.10
2022-11-16T01:35:36.407Z,1.50
2022-11-16T01:40:39.355Z,1.53
2022-11-16T01:45:42.349Z,1.07
2022-11-16T01:50:47.635Z,1.63
2022-11-16T01:55:49.918Z,0.93
2022-11-16T02:01:02.896Z,1.40
2022-11-16T02:06:27.494Z,1.20
2022-11-16T02:11:54.056Z,1.53
2022-11-16T02:17:15.262Z,1.17
2022-11-16T02:22:57.823Z,1.23
2022-11-16T02:28:26.159Z,0.97
2022-11-16T02:33:34.898Z,1.33
2022-11-16T02:38:42.913Z,0.87
2022-11-16T02:43:52.879Z,1.33
2022-11-16T02:48:58.342Z,1.20
2022-11-16T02:54:03.132Z,1.80
2022-11-16T02:59:08.597Z,1.90
2022-11-16T03:04:20.538Z,1.20
2022-11-16T03:09:28.901Z,0.90
2022-11-16T03:14:49.178Z,1.50
2022-11-16T03:20:04.484Z,1.03
2022-11-16T03:25:12.169Z,0.90
2022-11-16T03:30:23.359Z,1.47
2022-11-16T03:35:42.670Z,0.87
2022-11-16T03:40:46.422Z,1.70
2022-11-16T03:45:49.399Z,1.40
2022-11-16T03:50:52.263Z,1.00
2022-11-16T03:55:55.183Z,1.53
2022-11-16T04:00:57.239Z,1.10
2022-11-16T04:06:17.978Z,0.90
2022-11-16T04:11:41.597Z,1.07
2022-11-16T04:17:02.628Z,1.47
2022-11-16T04:22:31.682Z,1.43
2022-11-16T04:27:52.167Z,1.33
2022-11-16T04:33:13.323Z,1.60
2022-11-16T04:38:15.199Z,1.40
2022-11-16T04:43:17.808Z,2.27
2022-11-16T04:48:20.879Z,2.10
2022-11-16T04:53:27.937Z,1.63
2022-11-16T04:58:48.200Z,2.37
2022-11-16T05:03:50.936Z,2.13
2022-11-16T05:08:53.304Z,1.97
2022-11-16T05:13:55.149Z,1.63
2022-11-16T05:19:15.731Z,1.97
2022-11-16T05:24:35.978Z,1.60
2022-11-16T05:29:40.745Z,1.50
2022-11-16T05:34:43.647Z,1.57
2022-11-16T05:39:45.640Z,1.33
2022-11-16T05:44:47.851Z,1.40
2022-11-16T05:49:51.107Z,1.63
2022-11-16T05:54:53.743Z,1.17
2022-11-16T05:59:55.625Z,1.40
2022-11-16T06:04:57.457Z,1.40
2022-11-16T06:09:59.671Z,1.67
2022-11-16T06:15:01.838Z,2.13
2022-11-16T06:20:03.978Z,2.00
2022-11-16T06:25:09.204Z,2.53
2022-11-16T06:30:15.310Z,1.60
2022-11-16T06:35:17.438Z,1.70
2022-11-16T06:40:19.794Z,2.07
2022-11-16T06:45:21.999Z,1.80
2022-11-16T06:50:29.116Z,2.00
2022-11-16T06:55:32.031Z,1.67
2022-11-16T07:00:34.258Z,2.57
2022-11-16T07:05:40.880Z,2.57
2022-11-16T07:10:46.720Z,2.30
2022-11-16T07:15:48.697Z,2.63
2022-11-16T07:20:50.674Z,2.10
2022-11-16T07:25:52.891Z,2.00
2022-11-16T07:31:09.817Z,1.90
2022-11-16T07:36:14.254Z,1.83
2022-11-16T07:41:18.887Z,2.47
2022-11-16T07:46:48.886Z,2.40
2022-11-16T07:51:52.207Z,2.23
2022-11-16T07:57:08.763Z,2.37
2022-11-16T08:02:11.026Z,2.67
2022-11-16T08:07:16.505Z,2.43
2022-11-16T08:12:26.277Z,2.50
2022-11-16T08:17:29.439Z,2.13
2022-11-16T08:22:33.451Z,2.17
2022-11-16T08:27:36.191Z,1.87
2022-11-16T08:32:38.826Z,2.20
2022-11-16T08:37:41.151Z,2.57
2022-11-16T08:42:44.479Z,2.30
2022-11-16T08:47:47.543Z,2.60
2022-11-16T08:52:49.636Z,2.63
2022-11-16T08:57:52.479Z,2.00
2022-11-16T09:02:54.358Z,1.80
2022-11-16T09:07:56.374Z,2.00
2022-11-16T09:12:58.317Z,1.93
2022-11-16T09:18:00.202Z,1.70
2022-11-16T09:23:02.028Z,1.63
2022-11-16T09:28:03.996Z,1.33
2022-11-16T09:33:05.810Z,1.60
2022-11-16T09:38:09.849Z,1.70
2022-11-16T09:43:29.166Z,2.00
2022-11-16T09:48:35.862Z,1.63
2022-11-16T09:54:02.104Z,1.83
2022-11-16T09:59:13.559Z,1.60
2022-11-16T10:04:26.155Z,1.63
2022-11-16T10:09:29.462Z,1.60
2022-11-16T10:14:48.981Z,1.37
2022-11-16T10:19:57.019Z,1.37
2022-11-16T10:25:02.691Z,1.83
2022-11-16T10:30:07.619Z,2.13
2022-11-16T10:35:15.910Z,1.43
2022-11-16T10:40:24.676Z,1.73
2022-11-16T10:45:37.818Z,1.60
2022-11-16T10:50:46.434Z,1.00
2022-11-16T10:56:12.256Z,1.30
2022-11-16T11:01:14.084Z,1.67
2022-11-16T11:06:16.204Z,1.97
2022-11-16T11:11:41.133Z,1.53
2022-11-16T11:16:42.900Z,1.33
2022-11-16T11:21:45.387Z,1.50
2022-11-16T11:26:53.302Z,1.90
2022-11-16T11:32:00.582Z,1.20
2022-11-16T11:37:03.811Z,1.25
2022-11-16T11:42:26.399Z,1.30
2022-11-16T11:47:57.489Z,1.40
2022-11-16T11:53:07.095Z,0.98
2022-11-16T11:58:16.575Z,1.42
2022-11-16T12:03:53.894Z,1.40
2022-11-16T12:09:07.475Z,1.70
2022-11-16T12:14:26.403Z,1.58
2022-11-16T12:19:46.607Z,1.23
2022-11-16T12:25:05.662Z,1.10
2022-11-16T12:30:09.892Z,1.55
2022-11-16T12:35:39.566Z,1.80
2022-11-16T12:40:58.005Z,1.27
2022-11-16T12:46:12.580Z,1.33
2022-11-16T12:51:50.660Z,1.70
2022-11-16T12:57:02.241Z,1.20
2022-11-16T13:02:07.160Z,1.47
2022-11-16T13:07:21.374Z,1.60
2022-11-16T13:12:24.768Z,1.53
2022-11-16T13:17:35.320Z,1.50
2022-11-16T13:22:38.847Z,1.37
2022-11-16T13:28:00.618Z,1.27
2022-11-16T13:33:05.439Z,1.10
2022-11-16T13:38:13.640Z,1.38
2022-11-16T13:43:17.668Z,1.42
2022-11-16T13:48:33.899Z,1.20
2022-11-16T13:54:37.875Z,1.73
2022-11-16T13:59:00.450Z,1.37
2022-11-16T14:04:38.777Z,2.00
2022-11-16T14:09:42.448Z,2.10
2022-11-16T14:15:03.952Z,1.60
2022-11-16T14:20:11.980Z,1.73
2022-11-16T14:25:43.830Z,1.90
2022-11-16T14:31:11.767Z,1.27
2022-11-16T14:36:15.060Z,1.33
2022-11-16T14:41:23.010Z,1.67
2022-11-16T14:46:36.154Z,1.30
2022-11-16T14:51:44.764Z,1.70
2022-11-16T14:56:57.858Z,2.97
2022-11-16T15:02:12.189Z,2.30
2022-11-16T15:07:15.414Z,1.53
2022-11-16T15:12:42.129Z,1.83
2022-11-16T15:18:12.915Z,2.10
2022-11-16T15:23:15.457Z,2.00
2022-11-16T15:28:26.735Z,2.47
2022-11-16T15:33:34.049Z,2.10
2022-11-16T15:38:37.549Z,2.50
2022-11-16T15:44:01.502Z,1.87
2022-11-16T15:49:17.588Z,1.77
2022-11-16T15:54:26.243Z,2.03
2022-11-16T15:59:31.808Z,1.50
2022-11-16T16:04:33.856Z,2.23
2022-11-16T16:09:40.687Z,1.80
2022-11-16T16:14:43.120Z,1.80
2022-11-16T16:19:46.688Z,1.90
2022-11-16T16:24:48.666Z,1.70
2022-11-16T16:29:52.640Z,2.40
2022-11-16T16:34:56.144Z,1.50
2022-11-16T16:39:58.775Z,1.50
2022-11-16T16:45:01.930Z,1.30
2022-11-16T16:50:04.127Z,1.83
2022-11-16T16:55:06.384Z,1.73
2022-11-16T17:00:10.733Z,1.33
2022-11-16T17:05:12.557Z,2.37
2022-11-16T17:10:14.299Z,2.03
2022-11-16T17:15:19.328Z,1.60
2022-11-16T17:20:21.669Z,1.87
2022-11-16T17:25:23.625Z,2.03
2022-11-16T17:30:25.374Z,2.60
2022-11-16T17:35:28.410Z,2.63
2022-11-16T17:40:30.347Z,2.40
2022-11-16T17:45:32.233Z,2.43
2022-11-16T17:50:34.210Z,2.93
2022-11-16T17:55:37.632Z,1.77
2022-11-16T18:00:39.390Z,2.50
2022-11-16T18:05:41.317Z,2.43
2022-11-16T18:10:43.523Z,2.27
2022-11-16T18:15:45.275Z,2.70
2022-11-16T18:20:50.738Z,2.60
2022-11-16T18:25:52.884Z,2.57
2022-11-16T18:31:22.033Z,2.60
2022-11-16T18:36:23.983Z,2.20
2022-11-16T18:41:28.826Z,2.43
2022-11-16T18:46:32.623Z,2.40
2022-11-16T18:51:34.560Z,2.23
2022-11-16T18:56:36.333Z,2.63
2022-11-16T19:01:38.163Z,2.57
2022-11-16T19:06:40.025Z,2.10
2022-11-16T19:11:41.832Z,1.90
2022-11-16T19:16:52.624Z,2.37
2022-11-16T19:21:58.311Z,2.67
2022-11-16T19:27:00.276Z,2.30
2022-11-16T19:32:02.059Z,2.30
2022-11-16T19:37:03.936Z,3.40
2022-11-16T19:42:05.761Z,3.20
2022-11-16T19:47:07.669Z,2.50
2022-11-16T19:52:09.792Z,1.93
2022-11-16T19:57:12.879Z,2.50
2022-11-16T20:02:14.804Z,2.23
2022-11-16T20:07:18.131Z,2.27
2022-11-16T20:12:20.114Z,2.40
2022-11-16T20:17:21.854Z,2.47
2022-11-16T20:22:23.631Z,2.20
2022-11-16T20:27:25.368Z,1.77
2022-11-16T20:32:27.939Z,1.63
2022-11-16T20:37:29.816Z,1.40
2022-11-16T20:42:31.883Z,1.40
2022-11-16T20:47:33.647Z,1.60
2022-11-16T20:52:39.696Z,1.50
2022-11-16T20:57:44.442Z,1.23
2022-11-16T21:02:46.382Z,1.00
2022-11-16T21:07:48.316Z,1.13
2022-11-16T21:13:08.581Z,1.10
2022-11-16T21:18:10.323Z,0.83
2022-11-16T21:23:12.231Z,0.80
2022-11-16T21:28:14.050Z,0.70
2022-11-16T21:33:15.975Z,0.80
2022-11-16T21:38:18.033Z,0.67
2022-11-16T21:43:20.215Z,1.10
2022-11-16T21:48:21.964Z,0.90
2022-11-16T21:53:23.686Z,0.90
2022-11-16T21:58:26.131Z,1.10
2022-11-16T22:03:30.655Z,0.47
2022-11-16T22:08:32.543Z,0.47
2022-11-16T22:13:35.647Z,0.57
2022-11-16T22:18:38.462Z,0.40
2022-11-16T22:23:40.896Z,0.93
2022-11-16T22:28:43.268Z,0.57
2022-11-16T22:33:45.008Z,0.37
2022-11-16T22:38:46.914Z,0.60
2022-11-16T22:43:48.897Z,0.50
2022-11-16T22:48:50.647Z,0.30
2022-11-16T22:53:54.182Z,0.47
2022-11-16T22:58:56.499Z,0.30
2022-11-16T23:03:58.587Z,0.50
2022-11-16T23:09:00.464Z,0.30
2022-11-16T23:14:22.516Z,0.30
2022-11-16T23:19:43.513Z,0.40
2022-11-16T23:25:04.415Z,0.50
2022-11-16T23:30:12.459Z,0.40
2022-11-16T23:35:15.039Z,0.50
2022-11-16T23:40:16.984Z,0.40
2022-11-16T23:45:20.411Z,0.20
2022-11-16T23:50:22.150Z,0.27
2022-11-16T23:55:23.925Z,0.30
